Time;durP1;ratioP1;P1;durP2;ratioP2;P2;SDS_P1;SDS_P2;PMS_P1;PMS_P2;Temp;Humidity;BMP_temperature;BMP_pressure;BME280_temperature;BME280_humidity;BME280_pressure;Samples;Min_cycle;Max_cycle;Signal;HPM_P1;HPM_P2
2022/04/09 00:01:53;;;;;;;;;;;;;;;;;;4410596;32;19933;-77
2022/04/09 00:04:18;;;;;;;;;;;;;;;;;;4423745;32;20004;-77
2022/04/09 00:06:43;;;;;;;;;;;;;;;;;;4423597;32;19951;-77
2022/04/09 00:09:08;;;;;;;;;;;;;;;;;;4423365;32;19979;-76
2022/04/09 00:11:34;;;;;;;;;;;;;;;;;;4423989;32;20228;-75
2022/04/09 00:13:59;;;;;;;;;;;;;;;;;;4423522;32;19945;-76
2022/04/09 00:16:24;;;;;;;;;;;;;;;;;;4409591;32;19942;-76
2022/04/09 00:18:49;;;;;;;;;;;;;;;;;;4408729;32;19941;-77
2022/04/09 00:21:14;;;;;;;;;;;;;;;;;;4424876;32;19933;-76
2022/04/09 00:23:39;;;;;;;;;;;;;;;;;;4409056;32;19937;-77
2022/04/09 00:26:04;;;;;;;;;;;;;;;;;;4408874;32;20000;-77
2022/04/09 00:28:29;;;;;;;;;;;;;;;;;;4422781;32;19933;-77
2022/04/09 00:30:55;;;;;;;;;;;;;;;;;;4409389;32;19989;-76
2022/04/09 00:33:20;;;;;;;;;;;;;;;;;;4410926;32;19996;-76
2022/04/09 00:35:45;;;;;;;;;;;;;;;;;;4424208;32;20327;-75
2022/04/09 00:38:10;;;;;;;;;;;;;;;;;;4446648;26;19960;-87
2022/04/09 00:40:35;;;;;;;;;;;;;;;;;;4447978;32;19933;-85
2022/04/09 00:43:00;;;;;;;;;;;;;;;;;;4446023;32;19937;-85
2022/04/09 00:45:25;;;;;;;;;;;;;;;;;;4430225;32;19964;-86
2022/04/09 00:47:51;;;;;;;;;;;;;;;;;;4420699;32;19953;-85
2022/04/09 00:50:16;;;;;;;;;;;;;;;;;;4426337;32;19937;-87
2022/04/09 00:52:41;;;;;;;;;;;;;;;;;;4425738;32;19937;-86
2022/04/09 00:55:06;;;;;;;;;;;;;;;;;;4439839;32;19994;-87
2022/04/09 00:57:31;;;;;;;;;;;;;;;;;;4424281;32;19970;-86
2022/04/09 00:59:56;;;;;;;;;;;;;;;;;;4438787;32;20254;-86
2022/04/09 01:02:21;;;;;;;;;;;;;;;;;;4437999;32;19947;-84
2022/04/09 01:04:47;;;;;;;;;;;;;;;;;;4438721;32;20258;-85
2022/04/09 01:07:12;;;;;;;;;;;;;;;;;;4425155;32;19937;-87
2022/04/09 01:09:37;;;;;;;;;;;;;;;;;;4438329;32;19943;-84
2022/04/09 01:12:02;;;;;;;;;;;;;;;;;;4438717;32;19937;-87
2022/04/09 01:14:28;;;;;;;;;;;;;;;;;;4424769;32;19929;-84
2022/04/09 01:16:53;;;;;;;;;;;;;;;;;;4432696;32;19972;-85
2022/04/09 01:19:18;;;;;;;;;;;;;;;;;;4432210;32;19936;-85
2022/04/09 01:21:43;;;;;;;;;;;;;;;;;;4433279;32;19946;-87
2022/04/09 01:24:08;;;;;;;;;;;;;;;;;;4408654;32;19933;-85
2022/04/09 01:26:33;;;;;;;;;;;;;;;;;;4423170;32;19994;-87
2022/04/09 01:28:58;;;;;;;;;;;;;;;;;;4422998;32;20272;-86
2022/04/09 01:31:23;;;;;;;;;;;;;;;;;;4411732;32;19992;-84
2022/04/09 01:33:48;;;;;;;;;;;;;;;;;;4437577;32;19948;-87
2022/04/09 01:36:14;;;;;;;;;;;;;;;;;;4437887;32;19955;-88
2022/04/09 01:38:40;;;;;;;;;;;;;;;;;;4421718;32;19980;-84
2022/04/09 01:41:05;;;;;;;;;;;;;;;;;;4419682;32;20338;-83
2022/04/09 01:43:30;;;;;;;;;;;;;;;;;;4413901;32;19964;-83
2022/04/09 01:45:55;;;;;;;;;;;;;;;;;;4415982;32;19978;-84
2022/04/09 01:48:20;;;;;;;;;;;;;;;;;;4410401;32;19937;-85
2022/04/09 01:50:46;;;;;;;;;;;;;;;;;;4422801;32;20349;-85
2022/04/09 01:53:11;;;;;;;;;;;;;;;;;;4422595;32;19937;-87
2022/04/09 01:55:37;;;;;;;;;;;;;;;;;;4421107;32;19937;-83
2022/04/09 01:58:02;;;;;;;;;;;;;;;;;;4411236;32;20342;-85
2022/04/09 02:00:27;;;;;;;;;;;;;;;;;;4406430;32;19953;-84
2022/04/09 02:02:52;;;;;;;;;;;;;;;;;;4406129;32;19945;-87
2022/04/09 02:05:17;;;;;;;;;;;;;;;;;;4407230;32;19938;-85
2022/04/09 02:07:42;;;;;;;;;;;;;;;;;;4405760;32;20358;-87
2022/04/09 02:10:07;;;;;;;;;;;;;;;;;;4405746;32;19952;-85
2022/04/09 02:12:32;;;;;;;;;;;;;;;;;;4416802;32;19933;-88
2022/04/09 02:14:57;;;;;;;;;;;;;;;;;;4422345;32;19970;-89
2022/04/09 02:17:22;;;;;;;;;;;;;;;;;;4423566;32;19942;-88
2022/04/09 02:19:48;;;;;;;;;;;;;;;;;;4408608;32;19955;-87
2022/04/09 02:22:13;;;;;;;;;;;;;;;;;;4407166;32;20004;-87
2022/04/09 02:24:40;;;;;;;;;;;;;;;;;;4407656;32;19942;-86
2022/04/09 02:27:06;;;;;;;;;;;;;;;;;;4405688;32;19934;-88
2022/04/09 02:29:31;;;;;;;;;;;;;;;;;;4407014;32;19956;-84
2022/04/09 02:31:56;;;;;;;;;;;;;;;;;;4406473;32;19989;-86
2022/04/09 02:34:21;;;;;;;;;;;;;;;;;;4406671;32;19937;-88
2022/04/09 02:36:46;;;;;;;;;;;;;;;;;;4406098;32;20339;-85
2022/04/09 02:39:12;;;;;;;;;;;;;;;;;;4404999;32;19971;-85
2022/04/09 02:41:37;;;;;;;;;;;;;;;;;;4405181;32;19941;-89
2022/04/09 02:44:02;;;;;;;;;;;;;;;;;;4405773;32;19937;-86
2022/04/09 02:46:27;;;;;;;;;;;;;;;;;;4406055;32;20303;-89
2022/04/09 02:48:53;;;;;;;;;;;;;;;;;;4411089;32;19945;-87
2022/04/09 02:51:18;;;;;;;;;;;;;;;;;;4419861;32;20267;-86
2022/04/09 02:53:43;;;;;;;;;;;;;;;;;;4421973;32;19943;-85
2022/04/09 02:56:08;;;;;;;;;;;;;;;;;;4416549;32;20320;-86
2022/04/09 02:58:33;;;;;;;;;;;;;;;;;;4406851;32;19953;-87
2022/04/09 03:00:58;;;;;;;;;;;;;;;;;;4406375;32;19933;-88
2022/04/09 03:03:23;;;;;;;;;;;;;;;;;;4405366;32;19995;-86
2022/04/09 03:05:48;;;;;;;;;;;;;;;;;;4404924;32;20008;-88
2022/04/09 03:08:13;;;;;;;;;;;;;;;;;;4407056;32;20263;-89
2022/04/09 03:10:38;;;;;;;;;;;;;;;;;;4405312;32;19937;-87
2022/04/09 03:13:06;;;;;;;;;;;;;;;;;;4405868;32;20150;-85
2022/04/09 03:15:31;;;;;;;;;;;;;;;;;;4406295;32;20339;-87
2022/04/09 03:17:57;;;;;;;;;;;;;;;;;;4409226;32;20300;-86
2022/04/09 03:20:22;;;;;;;;;;;;;;;;;;4420012;32;19941;-87
2022/04/09 03:22:47;;;;;;;;;;;;;;;;;;4423927;32;19936;-86
2022/04/09 03:25:12;;;;;;;;;;;;;;;;;;4424205;32;20271;-86
2022/04/09 03:27:37;;;;;;;;;;;;;;;;;;4423142;32;19948;-88
2022/04/09 03:30:02;;;;;;;;;;;;;;;;;;4422902;32;19937;-86
2022/04/09 03:32:27;;;;;;;;;;;;;;;;;;4423157;32;19979;-87
2022/04/09 03:34:53;;;;;;;;;;;;;;;;;;4414151;32;19963;-87
2022/04/09 03:37:18;;;;;;;;;;;;;;;;;;4408170;32;20284;-87
2022/04/09 03:39:43;;;;;;;;;;;;;;;;;;4407285;32;19956;-84
2022/04/09 03:42:08;;;;;;;;;;;;;;;;;;4408565;32;19937;-87
2022/04/09 03:44:33;;;;;;;;;;;;;;;;;;4412422;32;19949;-85
2022/04/09 03:46:58;;;;;;;;;;;;;;;;;;4417162;32;19948;-86
2022/04/09 03:49:23;;;;;;;;;;;;;;;;;;4424201;32;19962;-84
2022/04/09 03:51:48;;;;;;;;;;;;;;;;;;4426225;32;19981;-84
2022/04/09 03:54:13;;;;;;;;;;;;;;;;;;4426616;32;19971;-87
2022/04/09 03:56:40;;;;;;;;;;;;;;;;;;4425140;32;19948;-86
2022/04/09 03:59:05;;;;;;;;;;;;;;;;;;4426362;32;19989;-85
2022/04/09 04:01:30;;;;;;;;;;;;;;;;;;4422460;32;19937;-85
2022/04/09 04:03:55;;;;;;;;;;;;;;;;;;4422905;32;19937;-86
2022/04/09 04:06:20;;;;;;;;;;;;;;;;;;4422388;32;20274;-86
2022/04/09 04:08:46;;;;;;;;;;;;;;;;;;4423223;32;19948;-84
2022/04/09 04:11:11;;;;;;;;;;;;;;;;;;4414154;32;19946;-85
2022/04/09 04:13:38;;;;;;;;;;;;;;;;;;4407912;32;19945;-84
2022/04/09 04:16:04;;;;;;;;;;;;;;;;;;4407832;32;20005;-87
2022/04/09 04:18:29;;;;;;;;;;;;;;;;;;4408090;32;20323;-85
2022/04/09 04:20:54;;;;;;;;;;;;;;;;;;4407644;32;20016;-86
2022/04/09 04:23:20;;;;;;;;;;;;;;;;;;4408243;32;20330;-88
2022/04/09 04:25:45;;;;;;;;;;;;;;;;;;4404935;32;20634;-86
2022/04/09 04:28:10;;;;;;;;;;;;;;;;;;4408068;32;20283;-83
2022/04/09 04:30:35;;;;;;;;;;;;;;;;;;4406755;32;19960;-84
2022/04/09 04:33:00;;;;;;;;;;;;;;;;;;4408224;32;19964;-86
2022/04/09 04:35:26;;;;;;;;;;;;;;;;;;4408353;32;20361;-86
2022/04/09 04:37:51;;;;;;;;;;;;;;;;;;4410803;32;19956;-86
2022/04/09 04:40:16;;;;;;;;;;;;;;;;;;4410892;32;20323;-85
2022/04/09 04:42:41;;;;;;;;;;;;;;;;;;4425860;32;19933;-86
2022/04/09 04:45:06;;;;;;;;;;;;;;;;;;4426537;32;20004;-84
2022/04/09 04:47:31;;;;;;;;;;;;;;;;;;4426857;32;19986;-87
2022/04/09 04:49:56;;;;;;;;;;;;;;;;;;4424469;32;20315;-83
2022/04/09 04:52:22;;;;;;;;;;;;;;;;;;4424243;32;20430;-87
2022/04/09 04:54:47;;;;;;;;;;;;;;;;;;4424082;32;19952;-84
2022/04/09 04:57:12;;;;;;;;;;;;;;;;;;4424245;32;20332;-85
2022/04/09 04:59:38;;;;;;;;;;;;;;;;;;4425840;32;19984;-86
2022/04/09 05:02:03;;;;;;;;;;;;;;;;;;4427062;32;19941;-84
2022/04/09 05:04:28;;;;;;;;;;;;;;;;;;4428363;32;19952;-86
2022/04/09 05:06:53;;;;;;;;;;;;;;;;;;4418519;32;19942;-85
2022/04/09 05:09:18;;;;;;;;;;;;;;;;;;4413367;32;19937;-84
2022/04/09 05:11:43;;;;;;;;;;;;;;;;;;4414696;32;19937;-86
2022/04/09 05:14:08;;;;;;;;;;;;;;;;;;4415679;32;20240;-82
2022/04/09 05:16:33;;;;;;;;;;;;;;;;;;4414795;32;19969;-84
2022/04/09 05:18:58;;;;;;;;;;;;;;;;;;4422985;32;20380;-80
2022/04/09 05:21:23;;;;;;;;;;;;;;;;;;4431742;32;19967;-85
2022/04/09 05:23:49;;;;;;;;;;;;;;;;;;4431086;32;19929;-83
2022/04/09 05:26:14;;;;;;;;;;;;;;;;;;4422802;32;19942;-83
2022/04/09 05:28:39;;;;;;;;;;;;;;;;;;4420092;32;19938;-84
2022/04/09 05:31:04;;;;;;;;;;;;;;;;;;4422275;32;19987;-84
2022/04/09 05:33:29;;;;;;;;;;;;;;;;;;4421067;32;19970;-85
2022/04/09 05:35:55;;;;;;;;;;;;;;;;;;4420722;32;19973;-85
2022/04/09 05:38:20;;;;;;;;;;;;;;;;;;4421203;32;19984;-86
2022/04/09 05:40:45;;;;;;;;;;;;;;;;;;4442417;32;19943;-86
2022/04/09 05:43:11;;;;;;;;;;;;;;;;;;4434355;32;19936;-82
2022/04/09 05:45:36;;;;;;;;;;;;;;;;;;4433687;32;19958;-86
2022/04/09 05:48:02;;;;;;;;;;;;;;;;;;4447192;32;19933;-87
2022/04/09 05:50:27;;;;;;;;;;;;;;;;;;4432588;32;19967;-85
2022/04/09 05:52:54;;;;;;;;;;;;;;;;;;4433071;32;19933;-87
2022/04/09 05:55:19;;;;;;;;;;;;;;;;;;4427494;32;19940;-87
2022/04/09 05:57:44;;;;;;;;;;;;;;;;;;4415437;32;19960;-86
2022/04/09 06:00:09;;;;;;;;;;;;;;;;;;4428512;32;19952;-88
2022/04/09 06:02:36;;;;;;;;;;;;;;;;;;4412872;32;19960;-88
2022/04/09 06:05:01;;;;;;;;;;;;;;;;;;4413841;32;19929;-88
2022/04/09 06:07:27;;;;;;;;;;;;;;;;;;4436864;32;19933;-85
2022/04/09 06:09:52;;;;;;;;;;;;;;;;;;4427241;32;19966;-85
2022/04/09 06:12:17;;;;;;;;;;;;;;;;;;4426089;32;19947;-88
2022/04/09 06:14:43;;;;;;;;;;;;;;;;;;4426811;32;19933;-88
2022/04/09 06:17:08;;;;;;;;;;;;;;;;;;4417793;32;19933;-87
2022/04/09 06:19:35;;;;;;;;;;;;;;;;;;4412021;32;19941;-86
2022/04/09 06:22:01;;;;;;;;;;;;;;;;;;4424708;32;19948;-85
2022/04/09 06:24:26;;;;;;;;;;;;;;;;;;4411022;32;20290;-86
2022/04/09 06:26:51;;;;;;;;;;;;;;;;;;4423808;32;19933;-86
2022/04/09 06:29:16;;;;;;;;;;;;;;;;;;4415949;32;20318;-87
2022/04/09 06:31:41;;;;;;;;;;;;;;;;;;4439298;32;19989;-88
2022/04/09 06:34:06;;;;;;;;;;;;;;;;;;4437021;32;19948;-87
2022/04/09 06:36:31;;;;;;;;;;;;;;;;;;4416096;32;19992;-88
2022/04/09 06:38:56;;;;;;;;;;;;;;;;;;4425348;32;19944;-88
2022/04/09 06:41:22;;;;;;;;;;;;;;;;;;4428891;32;19933;-88
2022/04/09 06:43:47;;;;;;;;;;;;;;;;;;4433445;32;19937;-85
2022/04/09 06:46:12;;;;;;;;;;;;;;;;;;4433329;32;19951;-87
2022/04/09 06:48:38;;;;;;;;;;;;;;;;;;4437840;32;19937;-88
2022/04/09 06:51:03;;;;;;;;;;;;;;;;;;4423436;32;20324;-87
2022/04/09 06:53:28;;;;;;;;;;;;;;;;;;4423340;32;19933;-87
2022/04/09 06:55:54;;;;;;;;;;;;;;;;;;4423309;32;19941;-87
2022/04/09 06:58:22;;;;;;;;;;;;;;;;;;4423543;32;19937;-88
2022/04/09 07:00:47;;;;;;;;;;;;;;;;;;4422976;32;19933;-86
2022/04/09 07:03:13;;;;;;;;;;;;;;;;;;4437466;32;20262;-89
2022/04/09 07:05:38;;;;;;;;;;;;;;;;;;4427387;32;19988;-89
2022/04/09 07:08:06;;;;;;;;;;;;;;;;;;4408535;32;19984;-87
2022/04/09 07:10:32;;;;;;;;;;;;;;;;;;4408238;32;19949;-86
2022/04/09 07:12:57;;;;;;;;;;;;;;;;;;4403592;32;20427;-83
2022/04/09 07:15:22;;;;;;;;;;;;;;;;;;4422351;32;19933;-84
2022/04/09 07:17:47;;;;;;;;;;;;;;;;;;4408031;32;19937;-84
2022/04/09 07:20:12;;;;;;;;;;;;;;;;;;4408211;32;20290;-85
2022/04/09 07:22:37;;;;;;;;;;;;;;;;;;4408119;32;19937;-87
2022/04/09 07:25:03;;;;;;;;;;;;;;;;;;4421052;32;19933;-85
2022/04/09 07:27:29;;;;;;;;;;;;;;;;;;4407012;32;19947;-83
2022/04/09 07:29:54;;;;;;;;;;;;;;;;;;4420590;32;19987;-82
2022/04/09 07:32:19;;;;;;;;;;;;;;;;;;4407007;32;19948;-87
2022/04/09 07:34:44;;;;;;;;;;;;;;;;;;4422229;32;20303;-83
2022/04/09 07:37:09;;;;;;;;;;;;;;;;;;4436096;32;19980;-83
2022/04/09 07:39:37;;;;;;;;;;;;;;;;;;4436068;32;20021;-84
2022/04/09 07:42:02;;;;;;;;;;;;;;;;;;4422541;32;19929;-84
2022/04/09 07:44:27;;;;;;;;;;;;;;;;;;4436342;32;19933;-86
2022/04/09 07:46:52;;;;;;;;;;;;;;;;;;4430700;32;19933;-83
2022/04/09 07:49:17;;;;;;;;;;;;;;;;;;4407023;32;20299;-85
2022/04/09 07:51:42;;;;;;;;;;;;;;;;;;4408018;32;20311;-84
2022/04/09 07:54:08;;;;;;;;;;;;;;;;;;4420918;32;19933;-86
2022/04/09 07:56:33;;;;;;;;;;;;;;;;;;4421039;32;19974;-82
2022/04/09 07:58:58;;;;;;;;;;;;;;;;;;4420249;32;19951;-86
2022/04/09 08:01:23;;;;;;;;;;;;;;;;;;4411414;32;19949;-83
2022/04/09 08:03:49;;;;;;;;;;;;;;;;;;4423989;32;19937;-84
2022/04/09 08:06:14;;;;;;;;;;;;;;;;;;4413996;32;19968;-82
2022/04/09 08:08:39;;;;;;;;;;;;;;;;;;4410385;32;20284;-84
2022/04/09 08:11:05;;;;;;;;;;;;;;;;;;4409687;32;20335;-86
2022/04/09 08:13:30;;;;;;;;;;;;;;;;;;4409384;32;19963;-87
2022/04/09 08:15:55;;;;;;;;;;;;;;;;;;4424100;32;19947;-85
2022/04/09 08:18:20;;;;;;;;;;;;;;;;;;4409509;32;20319;-87
2022/04/09 08:20:46;;;;;;;;;;;;;;;;;;4423729;32;19980;-84
2022/04/09 08:23:11;;;;;;;;;;;;;;;;;;4409577;32;19970;-83
2022/04/09 08:25:36;;;;;;;;;;;;;;;;;;4409420;32;19944;-86
2022/04/09 08:28:02;;;;;;;;;;;;;;;;;;4423967;32;19938;-86
2022/04/09 08:30:38;;;;;;;;;;;;;;;;;;4423735;32;19933;-89
2022/04/09 08:33:07;;;;;;;;;;;;;;;;;;4419904;32;19945;-85
2022/04/09 08:35:50;;;;;;;;;;;;;;;;;;4411568;32;19974;-86
2022/04/09 08:38:16;;;;;;;;;;;;;;;;;;4422916;32;20005;-86
2022/04/09 08:40:43;;;;;;;;;;;;;;;;;;4423423;32;19929;-87
2022/04/09 08:43:14;;;;;;;;;;;;;;;;;;4423569;32;19968;-86
2022/04/09 08:45:42;;;;;;;;;;;;;;;;;;4423392;32;19929;-85
2022/04/09 08:48:07;;;;;;;;;;;;;;;;;;4411119;32;19947;-87
2022/04/09 08:50:32;;;;;;;;;;;;;;;;;;4412001;32;19937;-87
2022/04/09 08:53:06;;;;;;;;;;;;;;;;;;4417005;32;19948;-85
2022/04/09 08:55:43;;;;;;;;;;;;;;;;;;4411933;32;19933;-87
2022/04/09 08:58:14;;;;;;;;;;;;;;;;;;4424033;32;20352;-90
2022/04/09 09:00:45;;;;;;;;;;;;;;;;;;4409012;32;19934;-88
2022/04/09 09:03:22;;;;;;;;;;;;;;;;;;4422559;32;19951;-86
2022/04/09 09:05:52;;;;;;;;;;;;;;;;;;4423014;32;19933;-89
2022/04/09 09:08:20;;;;;;;;;;;;;;;;;;4408964;32;19930;-87
2022/04/09 09:13:37;;;;;;;;;;;;;;;;;;4414113;32;19934;-88
2022/04/09 09:16:02;;;;;;;;;;;;;;;;;;4422984;32;20009;-85
2022/04/09 09:18:32;;;;;;;;;;;;;;;;;;4423892;32;19938;-88
2022/04/09 09:20:57;;;;;;;;;;;;;;;;;;4423538;32;19941;-88
2022/04/09 09:23:27;;;;;;;;;;;;;;;;;;4423121;32;19976;-89
2022/04/09 09:25:52;;;;;;;;;;;;;;;;;;4411032;32;19947;-88
2022/04/09 09:28:17;;;;;;;;;;;;;;;;;;4414352;32;19941;-89
2022/04/09 09:30:43;;;;;;;;;;;;;;;;;;4414329;32;20018;-90
2022/04/09 09:33:08;;;;;;;;;;;;;;;;;;4414698;32;19948;-88
2022/04/09 09:35:33;;;;;;;;;;;;;;;;;;4432647;32;20000;-88
2022/04/09 09:37:58;;;;;;;;;;;;;;;;;;4433198;32;19941;-90
2022/04/09 09:40:23;;;;;;;;;;;;;;;;;;4429166;32;20376;-89
2022/04/09 09:42:49;;;;;;;;;;;;;;;;;;4429890;32;19947;-86
2022/04/09 09:45:14;;;;;;;;;;;;;;;;;;4413650;32;19964;-88
2022/04/09 09:47:39;;;;;;;;;;;;;;;;;;4411797;32;20310;-88
2022/04/09 09:50:05;;;;;;;;;;;;;;;;;;4411991;32;19983;-87
2022/04/09 09:52:30;;;;;;;;;;;;;;;;;;4410368;32;19929;-84
2022/04/09 09:54:55;;;;;;;;;;;;;;;;;;4409113;32;19932;-85
2022/04/09 09:57:20;;;;;;;;;;;;;;;;;;4409859;32;19937;-83
2022/04/09 09:59:45;;;;;;;;;;;;;;;;;;4412816;32;19961;-84
2022/04/09 10:02:11;;;;;;;;;;;;;;;;;;4422504;32;20274;-87
2022/04/09 10:04:36;;;;;;;;;;;;;;;;;;4408925;32;19970;-85
2022/04/09 10:07:01;;;;;;;;;;;;;;;;;;4422087;32;19982;-85
2022/04/09 10:09:26;;;;;;;;;;;;;;;;;;4423988;32;19951;-83
2022/04/09 10:11:52;;;;;;;;;;;;;;;;;;4422188;32;19944;-85
2022/04/09 10:14:17;;;;;;;;;;;;;;;;;;4410334;32;20282;-85
2022/04/09 10:16:43;;;;;;;;;;;;;;;;;;4393016;32;19971;-88
2022/04/09 10:19:09;;;;;;;;;;;;;;;;;;4406877;32;19937;-84
2022/04/09 10:21:34;;;;;;;;;;;;;;;;;;4407278;32;19937;-85
2022/04/09 10:23:59;;;;;;;;;;;;;;;;;;4393388;32;19995;-83
2022/04/09 10:26:24;;;;;;;;;;;;;;;;;;4406492;32;19981;-83
2022/04/09 10:28:51;;;;;;;;;;;;;;;;;;4407007;32;20296;-83
2022/04/09 10:31:16;;;;;;;;;;;;;;;;;;4409972;32;19941;-85
2022/04/09 10:33:41;;;;;;;;;;;;;;;;;;4410364;32;19992;-85
2022/04/09 10:36:06;;;;;;;;;;;;;;;;;;4419325;32;19945;-83
2022/04/09 10:38:33;;;;;;;;;;;;;;;;;;4412948;32;19944;-82
2022/04/09 10:40:58;;;;;;;;;;;;;;;;;;4427566;32;19948;-83
2022/04/09 10:43:23;;;;;;;;;;;;;;;;;;4425092;32;19941;-81
2022/04/09 10:45:48;;;;;;;;;;;;;;;;;;4425564;32;19937;-84
2022/04/09 10:48:14;;;;;;;;;;;;;;;;;;4423856;32;20364;-82
2022/04/09 10:50:39;;;;;;;;;;;;;;;;;;4421544;32;19985;-85
2022/04/09 10:53:04;;;;;;;;;;;;;;;;;;4422920;32;20342;-83
2022/04/09 10:55:31;;;;;;;;;;;;;;;;;;4421241;32;20019;-84
2022/04/09 10:57:56;;;;;;;;;;;;;;;;;;4421548;32;19970;-81
2022/04/09 11:00:28;;;;;;;;;;;;;;;;;;4407636;32;19941;-82
2022/04/09 11:02:54;;;;;;;;;;;;;;;;;;4421321;32;19952;-83
2022/04/09 11:06:31;;;;;;;6.72;2.30;;;;;;;;;;4459820;32;20055;-83
2022/04/09 11:08:57;;;;;;;7.10;2.30;;;;;;;;;;4438490;32;20029;-79
2022/04/09 11:11:22;;;;;;;;;;;;;;;;;;4443180;32;20143;-81
2022/04/09 11:13:47;;;;;;;5.30;1.60;;;;;;;;;;4424689;32;19995;-83
2022/04/09 11:16:12;;;;;;;;;;;;;;;;;;4440627;32;20060;-80
2022/04/09 11:18:41;;;;;;;9.13;2.33;;;;;;;;;;4443918;32;19945;-80
2022/04/09 11:21:13;;;;;;;10.23;2.65;;;;;;;;;;4438278;32;20026;-80
2022/04/09 11:23:38;;;;;;;13.85;2.78;;;;;;;;;;4437925;32;20034;-81
2022/04/09 11:26:03;;;;;;;;;;;;;;;;;;4441477;32;20021;-81
2022/04/09 11:28:36;;;;;;;12.73;2.40;;;;;;;;;;4443414;32;20412;-79
2022/04/09 11:31:04;;;;;;;10.10;2.00;;;;;;;;;;4428073;32;20034;-79
2022/04/09 11:33:30;;;;;;;10.85;3.33;;;;;;;;;;4426054;32;20152;-78
2022/04/09 11:35:55;;;;;;;;;;;;;;;;;;4432862;32;20061;-79
2022/04/09 11:38:23;;;;;;;5.62;1.30;;;;;;;;;;4442216;32;19974;-81
2022/04/09 11:40:49;;;;;;;6.62;1.98;;;;;;;;;;4440669;32;20117;-82
2022/04/09 11:43:14;;;;;;;;;;;;;;;;;;4440246;32;20055;-81
2022/04/09 11:45:44;;;;;;;10.68;2.22;;;;;;;;;;4424604;32;19937;-80
2022/04/09 11:48:19;;;;;;;6.20;1.90;;;;;;;;;;4426926;32;20050;-82
2022/04/09 11:50:45;;;;;;;10.70;1.98;;;;;;;;;;4416673;32;20052;-79
2022/04/09 11:53:10;;;;;;;;;;;;;;;;;;4444417;32;20098;-79
2022/04/09 11:55:36;;;;;;;6.12;1.58;;;;;;;;;;4441345;32;19955;-77
2022/04/09 11:58:01;;;;;;;;;;;;;;;;;;4425055;32;20431;-84
2022/04/09 12:00:30;;;;;;;6.25;1.40;;;;;;;;;;4439447;32;20015;-80
2022/04/09 12:03:05;;;;;;;9.32;2.12;;;;;;;;;;4423960;32;20153;-78
2022/04/09 12:05:39;;;;;;;4.57;1.45;;;;;;;;;;4439493;32;20038;-75
2022/04/09 12:08:07;;;;;;;5.95;2.40;;;;;;;;;;4442246;32;20048;-79
2022/04/09 12:10:32;;;;;;;9.13;2.20;;;;;;;;;;4422794;32;20134;-77
2022/04/09 12:12:57;;;;;;;;;;;;;;;;;;4422502;32;20026;-80
2022/04/09 12:15:33;;;;;;;6.57;2.00;;;;;;;;;;4425751;32;19991;-83
2022/04/09 12:18:04;;;;;;;9.48;2.42;;;;;;;;;;4430573;32;20575;-79
2022/04/09 12:20:37;;;;;;;8.05;2.55;;;;;;;;;;4416330;32;20355;-81
2022/04/09 12:23:03;;;;;;;9.50;2.20;;;;;;;;;;4432550;32;20057;-78
2022/04/09 12:25:33;;;;;;;5.70;1.67;;;;;;;;;;4414106;32;20042;-81
2022/04/09 12:27:58;;;;;;;11.48;2.92;;;;;;;;;;4428625;32;20103;-83
2022/04/09 12:30:41;;;;;;;10.32;3.53;;;;;;;;;;4400069;32;20428;-80
2022/04/09 12:33:13;;;;;;;7.47;2.47;;;;;;;;;;4414372;32;20068;-79
2022/04/09 12:35:39;;;;;;;8.13;2.25;;;;;;;;;;4430509;32;20070;-78
2022/04/09 12:38:05;;;;;;;9.68;2.37;;;;;;;;;;4427607;32;20026;-80
2022/04/09 12:40:32;;;;;;;7.87;2.92;;;;;;;;;;4414278;32;20147;-79
2022/04/09 12:42:58;;;;;;;7.18;2.17;;;;;;;;;;4414437;32;20373;-80
2022/04/09 12:45:27;;;;;;;;;;;;;;;;;;4422207;32;20092;-80
2022/04/09 12:47:54;;;;;;;10.02;2.10;;;;;;;;;;4428210;32;20380;-83
2022/04/09 12:50:20;;;;;;;8.02;2.17;;;;;;;;;;4428016;32;20052;-82
2022/04/09 12:52:46;;;;;;;7.37;2.45;;;;;;;;;;4424369;32;20074;-81
2022/04/09 12:55:13;;;;;;;;;;;;;;;;;;4426808;32;20067;-79
2022/04/09 12:57:39;;;;;;;8.57;2.47;;;;;;;;;;4430014;32;19961;-81
2022/04/09 13:00:04;;;;;;;;;;;;;;;;;;4421842;32;20021;-81
2022/04/09 13:02:32;;;;;;;6.30;2.45;;;;;;;;;;4427680;32;20324;-83
2022/04/09 13:04:58;;;;;;;5.95;2.35;;;;;;;;;;4424618;32;20470;-79
2022/04/09 13:07:23;;;;;;;;;;;;;;;;;;4410666;32;20030;-78
2022/04/09 13:09:48;;;;;;;8.52;2.30;;;;;;;;;;4428527;32;19957;-80
2022/04/09 13:12:13;;;;;;;8.38;3.22;;;;;;;;;;4427977;32;20053;-79
2022/04/09 13:14:38;;;;;;;;;;;;;;;;;;4425318;32;20022;-79
2022/04/09 13:17:04;;;;;;;12.48;2.28;;;;;;;;;;4412106;32;19955;-80
2022/04/09 13:19:30;;;;;;;;;;;;;;;;;;4380264;32;20050;-82
2022/04/09 13:21:55;;;;;;;7.20;2.03;;;;;;;;;;4407636;32;19957;-81
2022/04/09 13:24:20;;;;;;;;;;;;;;;;;;4418794;32;20411;-80
2022/04/09 13:26:45;;;;;;;5.28;1.85;;;;;;;;;;4412078;32;20346;-81
2022/04/09 13:29:10;;;;;;;;;;;;;;;;;;4417401;32;20018;-82
2022/04/09 13:31:36;;;;;;;5.12;1.77;;;;;;;;;;4420923;32;19971;-82
2022/04/09 13:34:01;;;;;;;;;;;;;;;;;;4401051;32;20121;-83
2022/04/09 13:36:27;;;;;;;6.43;2.25;;;;;;;;;;4404799;32;19947;-77
2022/04/09 13:38:52;;;;;;;;;;;;;;;;;;4406038;32;20056;-78
2022/04/09 13:41:18;;;;;;;5.68;1.65;;;;;;;;;;4421805;32;19937;-81
2022/04/09 13:43:43;;;;;;;;;;;;;;;;;;4407453;32;20025;-75
2022/04/09 13:46:09;;;;;;;3.35;1.58;;;;;;;;;;4408355;32;20270;-80
2022/04/09 13:48:34;;;;;;;;;;;;;;;;;;4405899;32;20061;-76
2022/04/09 13:50:59;;;;;;;4.93;1.92;;;;;;;;;;4410823;32;19941;-80
2022/04/09 13:53:24;;;;;;;;;;;;;;;;;;4408152;32;20349;-76
2022/04/09 13:55:49;;;;;;;4.68;1.90;;;;;;;;;;4408084;32;19981;-77
2022/04/09 13:58:15;;;;;;;;;;;;;;;;;;4404684;32;20089;-79
2022/04/09 14:00:40;;;;;;;8.48;2.35;;;;;;;;;;4405900;32;19937;-78
2022/04/09 14:03:06;;;;;;;;;;;;;;;;;;4397307;32;20065;-78
2022/04/09 14:05:31;;;;;;;8.95;2.10;;;;;;;;;;4420354;32;19941;-78
2022/04/09 14:07:56;;;;;;;;;;;;;;;;;;4402976;32;20026;-79
2022/04/09 14:10:21;;;;;;;8.15;2.33;;;;;;;;;;4391977;32;19948;-79
2022/04/09 14:12:49;;;;;;;5.75;2.08;;;;;;;;;;4405304;32;20069;-79
2022/04/09 14:15:15;;;;;;;7.60;2.45;;;;;;;;;;4407122;32;20053;-81
2022/04/09 14:17:40;;;;;;;;;;;;;;;;;;4419910;32;20031;-78
2022/04/09 14:20:05;;;;;;;9.32;2.35;;;;;;;;;;4420642;32;19971;-82
2022/04/09 14:22:30;;;;;;;;;;;;;;;;;;4406982;32;20144;-79
2022/04/09 14:24:56;;;;;;;6.55;2.20;;;;;;;;;;4411385;32;19937;-77
2022/04/09 14:27:21;;;;;;;;;;;;;;;;;;4413827;32;20190;-79
2022/04/09 14:29:47;;;;;;;6.50;2.40;;;;;;;;;;4403507;32;19955;-77
2022/04/09 14:32:12;;;;;;;;;;;;;;;;;;4405734;32;20115;-80
2022/04/09 14:34:37;;;;;;;6.87;3.65;;;;;;;;;;4408697;32;19948;-78
2022/04/09 14:37:02;;;;;;;;;;;;;;;;;;4405516;32;20363;-78
2022/04/09 14:39:27;;;;;;;6.80;2.62;;;;;;;;;;4405206;32;19947;-78
2022/04/09 14:41:53;;;;;;;;;;;;;;;;;;4405572;32;20023;-79
2022/04/09 14:44:19;;;;;;;8.70;2.60;;;;;;;;;;4403416;32;19933;-81
2022/04/09 14:46:48;;;;;;;;;;;;;;;;;;4405620;32;20362;-81
2022/04/09 14:49:13;;;;;;;6.45;2.80;;;;;;;;;;4406004;32;19967;-80
2022/04/09 14:51:38;;;;;;;;;;;;;;;;;;4420351;32;20029;-75
2022/04/09 14:54:04;;;;;;;13.18;3.30;;;;;;;;;;4404197;32;19945;-78
2022/04/09 14:56:29;;;;;;;;;;;;;;;;;;4425029;32;20030;-78
2022/04/09 14:58:58;;;;;;;12.65;3.47;;;;;;;;;;4411197;32;19989;-78
2022/04/09 15:01:23;;;;;;;13.20;4.10;;;;;;;;;;4407974;32;20030;-80
2022/04/09 15:03:48;;;;;;;;;;;;;;;;;;4411437;32;20034;-80
2022/04/09 15:06:14;;;;;;;7.97;3.80;;;;;;;;;;4410235;32;20297;-76
2022/04/09 15:08:41;;;;;;;;;;;;;;;;;;4424282;32;20052;-81
2022/04/09 15:11:06;;;;;;;6.18;2.62;;;;;;;;;;4429739;32;20327;-82
2022/04/09 15:13:31;;;;;;;;;;;;;;;;;;4405142;32;20052;-80
2022/04/09 15:15:57;;;;;;;8.95;3.10;;;;;;;;;;4425750;32;20365;-81
2022/04/09 15:18:22;;;;;;;;;;;;;;;;;;4424387;32;20333;-82
2022/04/09 15:20:58;;;;;;;9.43;3.35;;;;;;;;;;4429919;32;19954;-84
2022/04/09 15:23:23;;;;;;;8.10;3.35;;;;;;;;;;4412001;32;20036;-84
2022/04/09 15:25:48;;;;;;;;;;;;;;;;;;4406585;32;20030;-83
2022/04/09 15:28:16;;;;;;;14.60;3.75;;;;;;;;;;4423133;32;19947;-86
2022/04/09 15:30:47;;;;;;;8.35;3.12;;;;;;;;;;4421345;32;20034;-84
2022/04/09 15:33:18;;;;;;;7.90;2.97;;;;;;;;;;4435008;32;20041;-85
2022/04/09 15:35:43;;;;;;;10.65;2.85;;;;;;;;;;4423955;32;20391;-85
2022/04/09 15:38:09;;;;;;;;;;;;;;;;;;4433997;32;20042;-86
2022/04/09 15:40:36;;;;;;;11.12;3.12;;;;;;;;;;4413385;32;20315;-85
2022/04/09 15:43:01;;;;;;;7.32;2.83;;;;;;;;;;4410841;32;20130;-85
2022/04/09 15:45:26;;;;;;;;;;;;;;;;;;4424472;32;20069;-83
2022/04/09 15:47:51;;;;;;;9.75;2.50;;;;;;;;;;4429465;32;19941;-83
2022/04/09 15:50:16;;;;;;;;;;;;;;;;;;4425556;32;20125;-82
2022/04/09 15:52:42;;;;;;;8.45;2.80;;;;;;;;;;4430810;32;20304;-82
2022/04/09 15:55:07;;;;;;;;;;;;;;;;;;4430744;32;20090;-82
2022/04/09 15:57:36;;;;;;;6.87;2.65;;;;;;;;;;4418421;32;20369;-80
2022/04/09 16:00:03;;;;;;;10.77;3.25;;;;;;;;;;4428321;32;20049;-82
2022/04/09 16:02:34;;;;;;;7.55;2.60;;;;;;;;;;4418136;32;20075;-83
2022/04/09 16:05:00;;;;;;;12.18;2.60;;;;;;;;;;4435311;32;20042;-83
2022/04/09 16:07:25;;;;;;;;;;;;;;;;;;4435704;32;20091;-78
2022/04/09 16:09:50;;;;;;;9.98;2.55;;;;;;;;;;4429694;32;19938;-82
2022/04/09 16:12:16;;;;;;;;;;;;;;;;;;4413090;32;20056;-82